createdAt,value
2023-04-22T00:01:49.663Z,86.70
2023-04-22T00:04:17.273Z,83.75
2023-04-22T00:06:45.566Z,91.57
2023-04-22T00:09:12.909Z,102.85
2023-04-22T00:11:40.635Z,100.57
2023-04-22T00:14:07.917Z,93.78
2023-04-22T00:16:35.306Z,98.28
2023-04-22T00:19:02.678Z,100.68
2023-04-22T00:21:30.393Z,103.20
2023-04-22T00:23:57.861Z,100.57
2023-04-22T00:26:25.226Z,98.07
2023-04-22T00:28:52.570Z,106.90
2023-04-22T00:31:19.831Z,103.07
2023-04-22T00:33:47.563Z,113.80
2023-04-22T00:36:14.826Z,113.40
2023-04-22T00:38:49.718Z,102.95
2023-04-22T00:41:17.738Z,100.53
2023-04-22T00:43:45.783Z,109.13
2023-04-22T00:46:16.182Z,93.18
2023-04-22T00:48:44.640Z,97.57
2023-04-22T00:51:11.935Z,109.05
2023-04-22T00:53:39.787Z,106.28
2023-04-22T00:56:07.824Z,114.05
2023-04-22T00:58:35.453Z,104.07
2023-04-22T01:01:03.810Z,118.72
2023-04-22T01:03:33.311Z,112.68
2023-04-22T01:06:00.787Z,109.80
2023-04-22T01:08:32.051Z,99.47
2023-04-22T01:11:00.231Z,94.03
2023-04-22T01:13:27.585Z,99.47
2023-04-22T01:15:56.369Z,94.22
2023-04-22T01:18:24.695Z,100.38
2023-04-22T01:20:53.008Z,96.07
2023-04-22T01:23:23.598Z,99.75
2023-04-22T01:25:51.424Z,104.70
2023-04-22T01:28:18.873Z,101.60
2023-04-22T01:30:46.295Z,98.93
2023-04-22T01:33:15.378Z,103.53
2023-04-22T01:35:43.104Z,95.45
2023-04-22T01:38:12.741Z,105.72
2023-04-22T01:40:40.253Z,100.00
2023-04-22T01:43:07.685Z,90.05
2023-04-22T01:45:35.588Z,96.28
2023-04-22T01:48:06.917Z,104.97
2023-04-22T01:50:34.638Z,110.07
2023-04-22T01:53:02.472Z,94.63
2023-04-22T01:55:30.974Z,99.88
2023-04-22T01:57:58.381Z,90.53
2023-04-22T02:00:25.715Z,93.88
2023-04-22T02:02:53.534Z,92.88
2023-04-22T02:05:20.797Z,99.30
2023-04-22T02:07:52.794Z,95.50
2023-04-22T02:10:20.917Z,86.10
2023-04-22T02:12:48.126Z,93.75
2023-04-22T02:15:15.770Z,86.20
2023-04-22T02:17:43.757Z,94.10
2023-04-22T02:20:13.040Z,84.53
2023-04-22T02:22:42.154Z,96.65
2023-04-22T02:25:10.980Z,82.53
2023-04-22T02:27:39.316Z,85.47
2023-04-22T02:30:07.498Z,100.68
2023-04-22T02:32:40.252Z,93.63
2023-04-22T02:35:08.034Z,96.40
2023-04-22T02:37:35.665Z,100.32
2023-04-22T02:40:03.905Z,102.97
2023-04-22T02:42:32.123Z,117.45
2023-04-22T02:44:59.693Z,100.00
2023-04-22T02:47:27.200Z,101.15
2023-04-22T02:49:54.468Z,116.82
2023-04-22T02:52:21.800Z,102.18
2023-04-22T02:54:49.197Z,98.07
2023-04-22T02:57:16.516Z,89.45
2023-04-22T02:59:43.865Z,93.50
2023-04-22T03:02:14.334Z,98.57
2023-04-22T03:05:00.928Z,94.88
2023-04-22T03:07:30.997Z,94.30
2023-04-22T03:09:59.381Z,95.53
2023-04-22T03:12:26.988Z,88.03
2023-04-22T03:14:54.156Z,92.07
2023-04-22T03:17:23.488Z,94.35
2023-04-22T03:19:51.009Z,95.30
2023-04-22T03:22:21.745Z,91.50
2023-04-22T03:24:49.949Z,98.82
2023-04-22T03:27:17.660Z,91.32
2023-04-22T03:29:45.072Z,100.25
2023-04-22T03:32:12.528Z,116.18
2023-04-22T03:34:40.083Z,103.50
2023-04-22T03:37:09.837Z,110.05
2023-04-22T03:39:37.828Z,100.63
2023-04-22T03:42:06.563Z,106.13
2023-04-22T03:44:36.552Z,105.93
2023-04-22T03:47:04.317Z,97.72
2023-04-22T03:49:38.366Z,88.53
2023-04-22T03:52:06.318Z,108.47
2023-04-22T03:54:36.273Z,99.90
2023-04-22T03:57:04.163Z,95.53
2023-04-22T03:59:32.949Z,110.70
2023-04-22T04:02:00.383Z,103.75
2023-04-22T04:04:29.371Z,111.22
2023-04-22T04:07:01.195Z,113.60
2023-04-22T04:09:29.352Z,108.75
2023-04-22T04:11:58.126Z,113.57
2023-04-22T04:14:28.609Z,108.47
2023-04-22T04:16:56.013Z,113.95
2023-04-22T04:19:27.041Z,115.43
2023-04-22T04:21:55.887Z,118.43
2023-04-22T04:24:24.364Z,118.53
2023-04-22T04:26:58.037Z,117.95
2023-04-22T04:29:31.032Z,112.90
2023-04-22T04:32:10.183Z,117.80
2023-04-22T04:34:37.795Z,109.10
2023-04-22T04:37:07.245Z,125.40
2023-04-22T04:42:14.359Z,111.88
2023-04-22T04:44:51.172Z,115.22
2023-04-22T04:47:20.465Z,116.75
2023-04-22T04:49:48.286Z,123.43
2023-04-22T04:52:16.070Z,104.22
2023-04-22T04:54:43.371Z,109.35
2023-04-22T04:57:10.776Z,120.75
2023-04-22T04:59:40.668Z,93.20
2023-04-22T05:02:08.672Z,104.78
2023-04-22T05:04:36.312Z,101.25
2023-04-22T05:07:04.143Z,99.13
2023-04-22T05:09:37.274Z,94.68
2023-04-22T05:12:05.133Z,111.53
2023-04-22T05:14:32.617Z,110.18
2023-04-22T05:17:00.279Z,99.10
2023-04-22T05:19:29.941Z,104.18
2023-04-22T05:21:58.051Z,109.32
2023-04-22T05:24:25.897Z,102.47
2023-04-22T05:26:53.424Z,96.10
2023-04-22T05:29:20.960Z,101.95
2023-04-22T05:31:48.489Z,109.90
2023-04-22T05:34:15.980Z,103.90
2023-04-22T05:36:44.368Z,98.75
2023-04-22T05:39:12.862Z,107.13
2023-04-22T05:41:40.820Z,117.85
2023-04-22T05:44:10.960Z,101.30
2023-04-22T05:46:38.958Z,106.47
2023-04-22T05:49:06.381Z,111.40
2023-04-22T05:51:52.236Z,112.95
2023-04-22T05:54:22.682Z,121.85
2023-04-22T05:56:50.442Z,113.63
2023-04-22T05:59:19.625Z,105.88
2023-04-22T06:01:50.022Z,110.90
2023-04-22T06:04:20.341Z,103.30
2023-04-22T06:06:48.085Z,102.65
2023-04-22T06:09:15.506Z,103.45
2023-04-22T06:11:44.093Z,109.22
2023-04-22T06:14:12.694Z,111.05
2023-04-22T06:16:41.933Z,104.47
2023-04-22T06:19:10.482Z,118.55
2023-04-22T06:21:39.932Z,119.72
2023-04-22T06:24:07.581Z,128.88
2023-04-22T06:26:35.046Z,117.35
2023-04-22T06:29:05.544Z,110.88
2023-04-22T06:31:33.854Z,115.75
2023-04-22T06:34:01.584Z,118.25
2023-04-22T06:36:30.740Z,115.47
2023-04-22T06:39:02.607Z,118.65
2023-04-22T06:41:44.384Z,123.10
2023-04-22T06:44:32.572Z,104.65
2023-04-22T06:47:18.458Z,111.93
2023-04-22T06:50:12.034Z,118.10
2023-04-22T06:52:46.956Z,111.97
2023-04-22T06:55:14.526Z,104.05
2023-04-22T06:57:42.088Z,105.40
2023-04-22T07:00:10.069Z,110.57
2023-04-22T07:02:40.027Z,116.25
2023-04-22T07:05:08.104Z,128.05
2023-04-22T07:07:35.880Z,126.05
2023-04-22T07:10:04.356Z,137.35
2023-04-22T07:12:41.277Z,128.95
2023-04-22T07:15:09.227Z,136.98
2023-04-22T07:17:36.611Z,127.13
2023-04-22T07:20:04.210Z,133.23
2023-04-22T07:22:31.773Z,120.30
2023-04-22T07:24:59.068Z,131.48
2023-04-22T07:27:26.445Z,138.63
2023-04-22T07:29:53.750Z,142.13
2023-04-22T07:32:21.234Z,130.98
2023-04-22T07:34:48.582Z,120.93
2023-04-22T07:37:15.957Z,130.02
2023-04-22T07:39:43.197Z,119.28
2023-04-22T07:42:10.527Z,139.13
2023-04-22T07:44:39.407Z,145.57
2023-04-22T07:47:08.489Z,126.05
2023-04-22T07:49:37.461Z,134.18
2023-04-22T07:52:05.190Z,129.02
2023-04-22T07:54:32.418Z,140.95
2023-04-22T07:56:59.848Z,127.90
2023-04-22T07:59:27.297Z,141.18
2023-04-22T08:01:54.720Z,124.97
2023-04-22T08:04:25.333Z,129.32
2023-04-22T08:06:53.197Z,109.93
2023-04-22T08:09:20.749Z,96.90
2023-04-22T08:11:48.125Z,99.28
2023-04-22T08:14:15.766Z,86.82
2023-04-22T08:16:43.188Z,107.57
2023-04-22T08:19:10.873Z,96.68
2023-04-22T08:21:38.382Z,100.28
2023-04-22T08:24:06.527Z,101.82
2023-04-22T08:26:33.990Z,89.85
2023-04-22T08:29:01.662Z,84.38
2023-04-22T08:31:29.193Z,70.90
2023-04-22T08:33:56.674Z,58.55
2023-04-22T08:36:26.032Z,66.03
2023-04-22T08:38:54.722Z,73.05
2023-04-22T08:41:24.408Z,52.08
2023-04-22T08:43:53.252Z,55.95
2023-04-22T08:46:23.983Z,54.28
2023-04-22T08:48:51.975Z,55.20
2023-04-22T08:51:19.966Z,49.50
2023-04-22T08:53:47.955Z,56.85
2023-04-22T08:56:15.718Z,49.92
2023-04-22T08:58:45.960Z,50.47
2023-04-22T09:01:13.923Z,49.38
2023-04-22T09:03:41.885Z,51.28
2023-04-22T09:06:11.299Z,52.72
2023-04-22T09:08:39.491Z,51.42
2023-04-22T09:11:06.897Z,47.50
2023-04-22T09:13:34.716Z,45.90
2023-04-22T09:16:03.700Z,48.78
2023-04-22T09:18:38.649Z,52.88
2023-04-22T09:21:06.206Z,49.80
2023-04-22T09:23:34.099Z,50.28
2023-04-22T09:26:01.630Z,48.20
2023-04-22T09:28:29.152Z,56.28
2023-04-22T09:31:00.958Z,51.47
2023-04-22T09:33:28.673Z,49.50
2023-04-22T09:35:56.362Z,44.40
2023-04-22T09:38:23.923Z,45.00
2023-04-22T09:40:51.405Z,41.53
2023-04-22T09:43:21.019Z,41.90
2023-04-22T09:45:48.646Z,39.10
2023-04-22T09:48:19.090Z,35.95
2023-04-22T09:50:48.457Z,36.65
2023-04-22T09:53:18.516Z,38.20
2023-04-22T09:55:48.830Z,40.10
2023-04-22T09:58:18.748Z,37.72
2023-04-22T10:00:52.036Z,36.28
2023-04-22T10:03:19.783Z,35.40
2023-04-22T10:05:48.600Z,32.13
2023-04-22T10:08:17.513Z,38.10
2023-04-22T10:10:46.300Z,37.55
2023-04-22T10:13:14.054Z,37.10
2023-04-22T10:15:42.844Z,34.88
2023-04-22T10:18:18.038Z,36.85
2023-04-22T10:20:50.088Z,42.38
2023-04-22T10:23:22.635Z,37.88
2023-04-22T10:25:55.068Z,32.55
2023-04-22T10:28:24.413Z,31.65
2023-04-22T10:30:51.972Z,34.92
2023-04-22T10:33:27.617Z,25.33
2023-04-22T10:36:08.188Z,29.65
2023-04-22T10:38:40.007Z,27.40
2023-04-22T10:41:13.374Z,27.45
2023-04-22T10:43:49.218Z,23.98
2023-04-22T10:46:39.780Z,29.52
2023-04-22T10:49:08.302Z,24.08
2023-04-22T10:51:49.948Z,20.73
2023-04-22T10:54:31.874Z,23.48
2023-04-22T10:57:03.471Z,20.73
2023-04-22T10:59:33.014Z,21.98
2023-04-22T11:02:06.485Z,23.73
2023-04-22T11:04:34.322Z,21.85
2023-04-22T11:07:26.256Z,34.67
2023-04-22T11:09:59.926Z,22.80
2023-04-22T11:12:38.319Z,23.52
2023-04-22T11:15:06.958Z,22.58
2023-04-22T11:17:36.143Z,22.73
2023-04-22T11:20:05.497Z,23.10
2023-04-22T11:22:37.126Z,23.65
2023-04-22T11:25:06.594Z,21.95
2023-04-22T11:27:33.966Z,23.10
2023-04-22T11:30:09.771Z,26.15
2023-04-22T11:32:40.662Z,16.83
2023-04-22T11:35:18.300Z,17.55
2023-04-22T11:37:46.824Z,18.95
2023-04-22T11:40:30.023Z,19.75
2023-04-22T11:42:59.559Z,18.25
2023-04-22T11:45:28.538Z,18.38
2023-04-22T11:47:56.530Z,20.75
2023-04-22T11:50:30.035Z,16.67
2023-04-22T11:53:02.902Z,18.08
2023-04-22T11:55:31.389Z,16.77
2023-04-22T11:58:07.953Z,15.35
2023-04-22T12:00:44.882Z,14.43
2023-04-22T12:03:19.484Z,12.68
2023-04-22T12:05:55.528Z,11.90
2023-04-22T12:08:26.114Z,13.07
2023-04-22T12:10:57.585Z,12.70
2023-04-22T12:13:43.113Z,9.93
2023-04-22T12:16:14.644Z,14.35
2023-04-22T12:18:48.337Z,17.58
2023-04-22T12:21:19.947Z,15.18
2023-04-22T12:23:49.381Z,13.45
2023-04-22T12:26:18.623Z,14.80
2023-04-22T12:28:46.814Z,15.60
2023-04-22T12:31:14.976Z,12.05
2023-04-22T12:33:42.794Z,12.50
2023-04-22T12:36:10.573Z,11.63
2023-04-22T12:38:38.250Z,11.85
2023-04-22T12:41:07.032Z,10.57
2023-04-22T12:43:36.733Z,16.90
2023-04-22T12:46:08.473Z,17.23
2023-04-22T12:48:37.630Z,16.13
2023-04-22T12:51:06.441Z,20.05
2023-04-22T12:53:34.315Z,16.80
2023-04-22T12:56:01.567Z,16.02
2023-04-22T12:58:28.935Z,16.55
2023-04-22T13:00:56.265Z,14.98
2023-04-22T13:03:23.832Z,18.33
2023-04-22T13:05:52.203Z,21.23
2023-04-22T13:08:19.503Z,16.05
2023-04-22T13:10:47.306Z,13.70
2023-04-22T13:13:18.461Z,16.25
2023-04-22T13:15:48.166Z,16.50
2023-04-22T13:18:17.001Z,25.55
2023-04-22T13:20:44.597Z,14.30
2023-04-22T13:23:13.327Z,14.57
2023-04-22T13:25:40.789Z,14.80
2023-04-22T13:28:10.200Z,13.15
2023-04-22T13:30:37.560Z,12.57
2023-04-22T13:33:04.846Z,13.23
2023-04-22T13:35:33.386Z,17.27
2023-04-22T13:38:01.368Z,17.13
2023-04-22T13:40:28.948Z,19.10
2023-04-22T13:42:56.341Z,20.67
2023-04-22T13:45:24.796Z,18.45
2023-04-22T13:47:53.340Z,23.27
2023-04-22T13:50:20.995Z,21.02
2023-04-22T13:52:48.702Z,15.05
2023-04-22T13:55:16.111Z,16.42
2023-04-22T13:57:45.483Z,15.93
2023-04-22T14:00:13.348Z,14.30
2023-04-22T14:02:40.847Z,21.73
2023-04-22T14:05:10.567Z,18.35
2023-04-22T14:07:37.996Z,24.30
2023-04-22T14:10:08.323Z,17.52
2023-04-22T14:12:35.694Z,21.67
2023-04-22T14:15:03.126Z,25.25
2023-04-22T14:17:30.521Z,20.27
2023-04-22T14:19:58.068Z,19.05
2023-04-22T14:22:25.754Z,18.33
2023-04-22T14:24:53.185Z,22.48
2023-04-22T14:27:20.751Z,21.65
2023-04-22T14:29:52.268Z,21.33
2023-04-22T14:32:20.890Z,17.45
2023-04-22T14:34:48.850Z,18.58
2023-04-22T14:37:16.197Z,23.58
2023-04-22T14:39:43.597Z,18.90
2023-04-22T14:42:11.218Z,20.25
2023-04-22T14:44:38.604Z,21.08
2023-04-22T14:47:06.163Z,24.77
2023-04-22T14:49:33.747Z,16.65
2023-04-22T14:52:01.508Z,19.02
2023-04-22T14:54:28.872Z,19.08
2023-04-22T14:56:56.450Z,24.30
2023-04-22T14:59:24.197Z,15.82
2023-04-22T15:01:51.511Z,17.23
2023-04-22T15:04:19.446Z,16.80
2023-04-22T15:06:48.341Z,18.20
2023-04-22T15:09:15.815Z,19.30
2023-04-22T15:11:43.136Z,18.52
2023-04-22T15:14:10.628Z,14.80
2023-04-22T15:16:37.986Z,13.10
2023-04-22T15:19:06.749Z,15.82
2023-04-22T15:21:34.154Z,16.67
2023-04-22T15:24:01.485Z,12.80
2023-04-22T15:26:30.764Z,15.25
2023-04-22T15:29:01.126Z,16.20
2023-04-22T15:31:28.696Z,12.15
2023-04-22T15:33:57.182Z,14.27
2023-04-22T15:36:24.640Z,10.05
2023-04-22T15:38:57.848Z,8.05
2023-04-22T15:41:26.692Z,9.60
2023-04-22T15:43:54.108Z,9.68
2023-04-22T15:46:22.635Z,12.57
2023-04-22T15:48:51.030Z,11.95
2023-04-22T15:51:22.287Z,12.48
2023-04-22T15:53:49.645Z,8.18
2023-04-22T15:56:19.259Z,8.82
2023-04-22T15:58:46.750Z,11.27
2023-04-22T16:01:19.560Z,7.63
2023-04-22T16:03:48.691Z,8.02
2023-04-22T16:06:20.890Z,7.70
2023-04-22T16:08:48.382Z,8.55
2023-04-22T16:11:17.493Z,13.43
2023-04-22T16:13:45.045Z,13.57
2023-04-22T16:16:12.457Z,11.55
2023-04-22T16:18:42.801Z,13.80
2023-04-22T16:21:11.615Z,8.57
2023-04-22T16:23:39.003Z,10.13
2023-04-22T16:26:06.510Z,8.40
2023-04-22T16:28:33.834Z,11.80
2023-04-22T16:31:01.871Z,8.18
2023-04-22T16:33:29.320Z,7.65
2023-04-22T16:35:57.215Z,8.05
2023-04-22T16:38:24.617Z,10.27
2023-04-22T16:40:54.212Z,7.40
2023-04-22T16:43:21.890Z,10.75
2023-04-22T16:45:49.234Z,12.48
2023-04-22T16:48:16.661Z,7.22
2023-04-22T16:50:43.983Z,10.43
2023-04-22T16:53:11.952Z,13.48
2023-04-22T16:55:39.335Z,9.00
2023-04-22T16:58:06.920Z,7.18
2023-04-22T17:00:34.343Z,9.98
2023-04-22T17:03:01.708Z,8.93
2023-04-22T17:05:31.701Z,16.67
2023-04-22T17:07:59.157Z,8.75
2023-04-22T17:10:27.620Z,9.93
2023-04-22T17:12:54.805Z,9.65
2023-04-22T17:15:22.217Z,10.77
2023-04-22T17:17:52.446Z,10.13
2023-04-22T17:20:19.893Z,9.52
2023-04-22T17:22:47.168Z,12.80
2023-04-22T17:25:14.540Z,13.77
2023-04-22T17:27:41.877Z,9.30
2023-04-22T17:30:09.505Z,9.15
2023-04-22T17:32:36.896Z,10.98
2023-04-22T17:35:04.458Z,8.85
2023-04-22T17:37:31.817Z,8.07
2023-04-22T17:39:59.141Z,8.40
2023-04-22T17:42:38.992Z,8.20
2023-04-22T17:45:11.106Z,6.65
2023-04-22T17:47:38.444Z,9.30
2023-04-22T17:50:06.639Z,5.95
2023-04-22T17:52:34.490Z,9.45
2023-04-22T17:55:02.077Z,7.18
2023-04-22T17:57:29.581Z,8.65
2023-04-22T17:59:56.979Z,8.90
2023-04-22T18:02:25.339Z,7.35
2023-04-22T18:04:53.710Z,7.45
2023-04-22T18:07:21.817Z,6.75
2023-04-22T18:09:49.754Z,8.60
2023-04-22T18:12:17.344Z,6.22
2023-04-22T18:14:44.834Z,10.80
2023-04-22T18:17:13.562Z,6.82
2023-04-22T18:19:41.428Z,10.52
2023-04-22T18:22:09.431Z,11.23
2023-04-22T18:24:37.014Z,12.30
2023-04-22T18:27:04.888Z,14.07
2023-04-22T18:29:32.430Z,15.93
2023-04-22T18:31:59.856Z,7.10
2023-04-22T18:34:28.979Z,9.45
2023-04-22T18:36:56.539Z,11.35
2023-04-22T18:39:23.921Z,13.45
2023-04-22T18:41:51.906Z,10.63
2023-04-22T18:44:20.560Z,9.88
2023-04-22T18:46:47.840Z,9.68
2023-04-22T18:49:15.301Z,11.48
2023-04-22T18:51:48.726Z,9.35
2023-04-22T18:54:16.248Z,13.23
2023-04-22T18:56:43.654Z,11.38
2023-04-22T18:59:12.806Z,6.78
2023-04-22T19:01:40.503Z,12.57
2023-04-22T19:04:08.162Z,8.90
2023-04-22T19:06:35.607Z,9.30
2023-04-22T19:09:04.781Z,9.52
2023-04-22T19:11:32.159Z,12.82
2023-04-22T19:14:02.301Z,7.57
2023-04-22T19:16:30.239Z,12.50
2023-04-22T19:18:57.880Z,15.27
2023-04-22T19:21:27.374Z,8.68
2023-04-22T19:23:54.973Z,12.35
2023-04-22T19:26:22.381Z,11.02
2023-04-22T19:28:49.766Z,14.80
2023-04-22T19:31:17.988Z,13.63
2023-04-22T19:33:46.059Z,13.82
2023-04-22T19:36:13.659Z,10.68
2023-04-22T19:38:41.075Z,10.77
2023-04-22T19:41:09.093Z,14.65
2023-04-22T19:43:38.254Z,18.73
2023-04-22T19:46:05.779Z,12.90
2023-04-22T19:48:35.601Z,19.80
2023-04-22T19:51:05.572Z,14.02
2023-04-22T19:53:36.328Z,13.25
2023-04-22T19:56:04.015Z,17.30
2023-04-22T19:58:32.216Z,15.13
2023-04-22T20:01:00.043Z,16.90
2023-04-22T20:03:28.126Z,17.90
2023-04-22T20:05:56.216Z,16.10
2023-04-22T20:08:27.185Z,18.60
2023-04-22T20:10:55.906Z,15.15
2023-04-22T20:13:23.711Z,17.05
2023-04-22T20:15:51.444Z,18.25
2023-04-22T20:18:18.903Z,21.90
2023-04-22T20:20:48.268Z,22.05
2023-04-22T20:23:17.373Z,18.80
2023-04-22T20:25:45.444Z,17.08
2023-04-22T20:28:13.091Z,18.33
2023-04-22T20:30:41.911Z,22.30
2023-04-22T20:33:12.225Z,23.95
2023-04-22T20:35:40.668Z,18.85
2023-04-22T20:38:13.385Z,20.30
2023-04-22T20:40:42.845Z,27.38
2023-04-22T20:43:11.369Z,20.60
2023-04-22T20:45:39.614Z,24.45
2023-04-22T20:48:07.031Z,25.95
2023-04-22T20:50:34.562Z,18.92
2023-04-22T20:53:03.679Z,25.90
2023-04-22T20:55:31.635Z,25.63
2023-04-22T20:57:59.456Z,18.83
2023-04-22T21:00:27.096Z,21.77
2023-04-22T21:02:55.923Z,23.90
2023-04-22T21:05:25.872Z,14.98
2023-04-22T21:07:55.241Z,23.05
2023-04-22T21:10:24.527Z,25.23
2023-04-22T21:12:53.903Z,36.92
2023-04-22T21:15:22.302Z,23.65
2023-04-22T21:17:57.413Z,31.60
2023-04-22T21:20:27.299Z,28.42
2023-04-22T21:22:56.233Z,32.38
2023-04-22T21:25:24.448Z,32.13
2023-04-22T21:27:52.070Z,32.88
2023-04-22T21:30:21.872Z,35.90
2023-04-22T21:32:49.839Z,33.53
2023-04-22T21:35:17.612Z,37.75
2023-04-22T21:37:45.279Z,33.83
2023-04-22T21:40:13.318Z,34.30
2023-04-22T21:42:42.072Z,27.23
2023-04-22T21:45:10.007Z,32.50
2023-04-22T21:47:37.697Z,36.25
2023-04-22T21:50:06.094Z,42.25
2023-04-22T21:52:33.558Z,36.20
2023-04-22T21:55:01.576Z,36.50
2023-04-22T21:57:29.459Z,31.00
2023-04-22T21:59:58.390Z,39.42
2023-04-22T22:02:26.705Z,41.05
2023-04-22T22:04:54.277Z,38.42
2023-04-22T22:07:22.242Z,41.60
2023-04-22T22:09:49.928Z,40.35
2023-04-22T22:12:17.400Z,32.22
2023-04-22T22:14:44.921Z,37.85
2023-04-22T22:17:12.534Z,38.05
2023-04-22T22:19:42.064Z,31.90
2023-04-22T22:22:09.437Z,37.80
2023-04-22T22:24:37.398Z,32.90
2023-04-22T22:27:05.462Z,35.25
2023-04-22T22:29:33.080Z,32.30
2023-04-22T22:32:02.341Z,33.25
2023-04-22T22:34:29.975Z,26.80
2023-04-22T22:36:57.384Z,32.53
2023-04-22T22:39:25.066Z,34.33
2023-04-22T22:41:52.668Z,28.00
2023-04-22T22:44:20.075Z,25.70
2023-04-22T22:46:48.635Z,35.22
2023-04-22T22:49:20.044Z,32.72
2023-04-22T22:51:47.472Z,35.58
2023-04-22T22:54:15.289Z,31.80
2023-04-22T22:56:43.136Z,24.30
2023-04-22T22:59:14.216Z,24.95
2023-04-22T23:01:41.690Z,20.48
2023-04-22T23:04:09.409Z,20.23
2023-04-22T23:06:37.251Z,20.02
2023-04-22T23:09:05.462Z,16.35
2023-04-22T23:11:32.885Z,20.50
2023-04-22T23:14:00.846Z,22.13
2023-04-22T23:16:28.246Z,18.30
2023-04-22T23:18:56.387Z,17.33
2023-04-22T23:21:23.864Z,8.77
2023-04-22T23:23:53.418Z,10.00
2023-04-22T23:26:21.252Z,11.88
2023-04-22T23:28:49.081Z,12.43
2023-04-22T23:31:19.908Z,19.65
2023-04-22T23:33:49.998Z,16.27
2023-04-22T23:36:22.615Z,15.90
2023-04-22T23:38:51.549Z,12.32
2023-04-22T23:41:18.827Z,12.20
2023-04-22T23:43:47.596Z,13.25
2023-04-22T23:46:17.379Z,16.38
2023-04-22T23:48:46.289Z,11.93
2023-04-22T23:51:16.387Z,13.95
2023-04-22T23:53:45.372Z,8.45
2023-04-22T23:56:13.971Z,11.27
2023-04-22T23:58:41.984Z,9.25
